Time;durP1;ratioP1;P1;durP2;ratioP2;P2;SDS_P1;SDS_P2;PMS_P1;PMS_P2;Temp;Humidity;BMP_temperature;BMP_pressure;BME280_temperature;BME280_humidity;BME280_pressure;Samples;Min_cycle;Max_cycle;Signal;HPM_P1;HPM_P2
2023/03/10 00:00:04;;;;;;;11.18;10.48;;;;;;;;;;5000733;28;20037;-51
2023/03/10 00:02:33;;;;;;;12.10;11.40;;;;;;;;;;4999034;28;20093;-51
2023/03/10 00:04:58;;;;;;;11.05;10.35;;;;;;;;;;5004927;28;20026;-51
2023/03/10 00:07:24;;;;;;;11.35;10.55;;;;;;;;;;4998221;28;20429;-51
2023/03/10 00:09:49;;;;;;;10.55;9.93;;;;;;;;;;5001855;28;20061;-49
2023/03/10 00:12:14;;;;;;;11.73;11.00;;;;;;;;;;4998955;28;20038;-59
2023/03/10 00:14:40;;;;;;;11.43;10.73;;;;;;;;;;4998898;28;20033;-57
2023/03/10 00:17:05;;;;;;;11.27;10.57;;;;;;;;;;4996989;28;20586;-58
2023/03/10 00:19:31;;;;;;;11.65;10.95;;;;;;;;;;4996862;28;20038;-59
2023/03/10 00:21:56;;;;;;;11.93;11.23;;;;;;;;;;4996642;28;20026;-58
2023/03/10 00:24:22;;;;;;;11.55;10.85;;;;;;;;;;4997078;28;20173;-58
2023/03/10 00:26:50;;;;;;;11.80;11.10;;;;;;;;;;4998473;28;20088;-58
2023/03/10 00:29:17;;;;;;;12.73;11.93;;;;;;;;;;4997289;28;20227;-59
2023/03/10 00:31:43;;;;;;;12.68;11.98;;;;;;;;;;4995047;28;20092;-57
2023/03/10 00:34:10;;;;;;;13.20;12.40;;;;;;;;;;4995984;28;20034;-58
2023/03/10 00:36:35;;;;;;;12.43;11.73;;;;;;;;;;4994819;28;20487;-59
2023/03/10 00:39:01;;;;;;;11.52;10.82;;;;;;;;;;4997598;28;20037;-58
2023/03/10 00:41:32;;;;;;;12.10;11.40;;;;;;;;;;4997330;28;20033;-55
2023/03/10 00:43:59;;;;;;;12.70;11.90;;;;;;;;;;4995347;28;20078;-57
2023/03/10 00:46:25;;;;;;;11.50;10.80;;;;;;;;;;4994143;28;20045;-57
2023/03/10 00:48:51;;;;;;;12.43;11.52;;;;;;;;;;4994031;28;20499;-59
2023/03/10 00:51:17;;;;;;;12.00;11.30;;;;;;;;;;4995567;28;20100;-55
2023/03/10 00:53:43;;;;;;;12.05;11.30;;;;;;;;;;4994074;28;20034;-56
2023/03/10 00:56:15;;;;;;;12.00;11.30;;;;;;;;;;4995363;28;20030;-52
2023/03/10 00:58:41;;;;;;;14.07;13.27;;;;;;;;;;4996156;28;20034;-56
2023/03/10 01:01:19;;;;;;;13.60;12.80;;;;;;;;;;4996165;28;20042;-55
2023/03/10 01:03:45;;;;;;;13.20;12.10;;;;;;;;;;4996419;28;20393;-54
2023/03/10 01:06:11;;;;;;;11.60;10.90;;;;;;;;;;4992003;28;20048;-55
2023/03/10 01:08:37;;;;;;;13.35;12.55;;;;;;;;;;4994247;28;20096;-55
2023/03/10 01:11:02;;;;;;;11.93;11.23;;;;;;;;;;4993160;28;20112;-55
2023/03/10 01:13:29;;;;;;;12.10;11.10;;;;;;;;;;4996474;28;20356;-55
2023/03/10 01:15:54;;;;;;;12.85;12.05;;;;;;;;;;4993899;28;20380;-55
2023/03/10 01:18:20;;;;;;;13.00;12.25;;;;;;;;;;4997630;28;20038;-54
2023/03/10 01:20:46;;;;;;;12.07;11.38;;;;;;;;;;4997515;28;20149;-55
2023/03/10 01:23:21;;;;;;;12.10;11.40;;;;;;;;;;4996334;28;20037;-55
2023/03/10 01:25:47;;;;;;;12.55;11.85;;;;;;;;;;4997978;28;20046;-55
2023/03/10 01:28:12;;;;;;;12.30;11.60;;;;;;;;;;4993903;28;20508;-54
2023/03/10 01:30:39;;;;;;;12.13;11.43;;;;;;;;;;4995317;28;20033;-54
2023/03/10 01:33:04;;;;;;;12.32;11.63;;;;;;;;;;4995112;28;20041;-54
2023/03/10 01:35:30;;;;;;;13.98;13.18;;;;;;;;;;4995882;28;20053;-56
2023/03/10 01:37:56;;;;;;;12.57;11.85;;;;;;;;;;4995916;28;20113;-56
2023/03/10 01:40:22;;;;;;;12.02;11.32;;;;;;;;;;4990471;28;20044;-54
2023/03/10 01:42:47;;;;;;;13.48;12.68;;;;;;;;;;4992829;28;20037;-55
2023/03/10 01:45:15;;;;;;;13.20;12.40;;;;;;;;;;4994133;28;20038;-55
2023/03/10 01:47:44;;;;;;;11.77;11.07;;;;;;;;;;5000175;28;20475;-54
2023/03/10 01:50:16;;;;;;;12.07;11.38;;;;;;;;;;4992693;28;20511;-55
2023/03/10 01:52:47;;;;;;;12.02;11.32;;;;;;;;;;4996744;28;20040;-56
2023/03/10 01:55:18;;;;;;;12.60;11.90;;;;;;;;;;4993817;28;20056;-55
2023/03/10 01:57:53;;;;;;;12.93;12.18;;;;;;;;;;4993693;28;20034;-55
2023/03/10 02:00:26;;;;;;;12.48;11.77;;;;;;;;;;4995094;28;20050;-55
2023/03/10 02:03:02;;;;;;;11.82;11.13;;;;;;;;;;5026013;28;20219;-55
2023/03/10 02:05:29;;;;;;;11.00;10.30;;;;;;;;;;4994364;28;20769;-56
2023/03/10 02:07:55;;;;;;;11.90;11.20;;;;;;;;;;4993931;28;20038;-56
2023/03/10 02:10:20;;;;;;;12.05;11.35;;;;;;;;;;4994907;28;20034;-56
2023/03/10 02:12:46;;;;;;;12.13;11.38;;;;;;;;;;4993376;28;20042;-55
2023/03/10 02:15:12;;;;;;;12.25;11.55;;;;;;;;;;4993247;28;20084;-55
2023/03/10 02:17:38;;;;;;;12.80;11.80;;;;;;;;;;4995519;28;20030;-56
2023/03/10 02:20:08;;;;;;;12.23;11.52;;;;;;;;;;4993690;28;20034;-55
2023/03/10 02:22:35;;;;;;;11.73;11.02;;;;;;;;;;5001182;28;20116;-55
2023/03/10 02:25:21;;;;;;;12.45;11.75;;;;;;;;;;4992907;28;20030;-50
2023/03/10 02:27:47;;;;;;;11.98;11.27;;;;;;;;;;4994407;28;20472;-49
2023/03/10 02:30:13;;;;;;;12.48;11.77;;;;;;;;;;4994909;28;20065;-51
2023/03/10 02:32:43;;;;;;;12.25;11.55;;;;;;;;;;4995785;28;20077;-50
2023/03/10 02:35:09;;;;;;;11.60;10.90;;;;;;;;;;4997245;28;20034;-50
2023/03/10 02:37:34;;;;;;;12.20;11.50;;;;;;;;;;4992956;28;20529;-54
2023/03/10 02:40:00;;;;;;;12.40;11.70;;;;;;;;;;4994664;28;20044;-51
2023/03/10 02:42:29;;;;;;;12.32;11.63;;;;;;;;;;4994419;28;20427;-50
2023/03/10 02:44:55;;;;;;;12.05;11.35;;;;;;;;;;4994652;28;20428;-51
2023/03/10 02:47:21;;;;;;;14.10;13.30;;;;;;;;;;4994527;28;20037;-49
2023/03/10 02:49:46;;;;;;;13.43;12.63;;;;;;;;;;4994919;28;20092;-49
2023/03/10 02:52:28;;;;;;;11.90;11.20;;;;;;;;;;4993122;28;20675;-52
2023/03/10 02:54:53;;;;;;;13.85;13.05;;;;;;;;;;4995393;28;20065;-53
2023/03/10 02:57:19;;;;;;;15.35;14.50;;;;;;;;;;4994989;28;20034;-52
2023/03/10 02:59:44;;;;;;;15.75;14.85;;;;;;;;;;4994003;28;20314;-49
2023/03/10 03:02:10;;;;;;;14.48;13.68;;;;;;;;;;4993126;28;20417;-52
2023/03/10 03:04:35;;;;;;;14.48;13.63;;;;;;;;;;5000901;28;20781;-51
2023/03/10 03:07:01;;;;;;;14.15;13.35;;;;;;;;;;4995836;28;20058;-51
2023/03/10 03:09:26;;;;;;;14.45;13.65;;;;;;;;;;4993627;28;20082;-52
2023/03/10 03:11:51;;;;;;;14.50;13.70;;;;;;;;;;4993269;28;20033;-49
2023/03/10 03:14:17;;;;;;;15.02;14.13;;;;;;;;;;4992857;28;20046;-50
2023/03/10 03:16:42;;;;;;;14.23;13.43;;;;;;;;;;4991895;28;20018;-50
2023/03/10 03:19:07;;;;;;;13.68;12.88;;;;;;;;;;4992470;28;20038;-52
2023/03/10 03:21:33;;;;;;;13.43;12.57;;;;;;;;;;4989690;28;20464;-51
2023/03/10 03:23:58;;;;;;;13.77;12.98;;;;;;;;;;4989658;28;20045;-52
2023/03/10 03:26:25;;;;;;;14.38;13.45;;;;;;;;;;4989219;28;20362;-49
2023/03/10 03:28:52;;;;;;;13.18;12.43;;;;;;;;;;4990588;28;20062;-51
2023/03/10 03:31:20;;;;;;;13.40;12.60;;;;;;;;;;4994192;28;20501;-52
2023/03/10 03:33:45;;;;;;;14.50;13.70;;;;;;;;;;4992756;28;20060;-52
2023/03/10 03:36:11;;;;;;;13.48;12.68;;;;;;;;;;4993593;28;20041;-51
2023/03/10 03:38:37;;;;;;;13.25;12.48;;;;;;;;;;4994232;28;20030;-50
2023/03/10 03:41:03;;;;;;;13.80;13.00;;;;;;;;;;4990494;28;20103;-51
2023/03/10 03:43:29;;;;;;;14.25;13.45;;;;;;;;;;4987589;28;20600;-51
2023/03/10 03:45:55;;;;;;;13.35;12.55;;;;;;;;;;4991870;28;20042;-52
2023/03/10 03:48:20;;;;;;;13.63;12.82;;;;;;;;;;4988451;28;20376;-52
2023/03/10 03:50:47;;;;;;;13.52;12.73;;;;;;;;;;4993707;28;20071;-50
2023/03/10 03:53:13;;;;;;;13.80;13.00;;;;;;;;;;4991321;28;20157;-49
2023/03/10 03:55:38;;;;;;;14.02;13.23;;;;;;;;;;4995382;28;20117;-51
2023/03/10 03:58:04;;;;;;;12.57;11.88;;;;;;;;;;5011835;28;20124;-51
2023/03/10 04:00:29;;;;;;;13.02;12.23;;;;;;;;;;4993469;28;20111;-49
2023/03/10 04:02:55;;;;;;;12.65;11.95;;;;;;;;;;4997931;28;20064;-51
2023/03/10 04:05:20;;;;;;;13.25;12.45;;;;;;;;;;4998985;28;20045;-49
2023/03/10 04:07:47;;;;;;;11.52;10.82;;;;;;;;;;4991241;28;20045;-47
2023/03/10 04:10:18;;;;;;;12.52;11.82;;;;;;;;;;4997342;28;20034;-52
2023/03/10 04:12:44;;;;;;;13.35;12.55;;;;;;;;;;4995867;28;20030;-51
2023/03/10 04:15:10;;;;;;;12.43;11.73;;;;;;;;;;4993760;28;20116;-51
2023/03/10 04:17:36;;;;;;;13.02;12.23;;;;;;;;;;4992679;28;20033;-51
2023/03/10 04:20:04;;;;;;;12.02;11.32;;;;;;;;;;5011053;28;20034;-51
2023/03/10 04:22:30;;;;;;;11.68;10.98;;;;;;;;;;4996827;28;20041;-52
2023/03/10 04:24:55;;;;;;;11.45;10.75;;;;;;;;;;4994799;28;20456;-51
2023/03/10 04:27:20;;;;;;;11.95;11.25;;;;;;;;;;4997137;28;20189;-50
2023/03/10 04:29:46;;;;;;;12.98;12.25;;;;;;;;;;4995831;28;20046;-53
2023/03/10 04:32:11;;;;;;;11.85;11.15;;;;;;;;;;4996975;28;20077;-51
2023/03/10 04:34:36;;;;;;;11.60;10.90;;;;;;;;;;4995021;28;20026;-53
2023/03/10 04:37:02;;;;;;;12.27;11.57;;;;;;;;;;4994654;28;20037;-50
2023/03/10 04:39:27;;;;;;;12.38;11.68;;;;;;;;;;4995740;28;20145;-53
2023/03/10 04:41:53;;;;;;;12.18;11.48;;;;;;;;;;4997385;28;20037;-51
2023/03/10 04:44:18;;;;;;;11.88;11.18;;;;;;;;;;4999558;28;20479;-51
2023/03/10 04:46:43;;;;;;;12.90;12.10;;;;;;;;;;4998969;28;20079;-50
2023/03/10 04:49:09;;;;;;;11.40;10.70;;;;;;;;;;4996647;28;20053;-50
2023/03/10 04:51:34;;;;;;;11.18;10.48;;;;;;;;;;4996738;28;20037;-48
2023/03/10 04:54:00;;;;;;;11.55;10.85;;;;;;;;;;4993895;28;20031;-51
2023/03/10 04:56:25;;;;;;;12.45;11.73;;;;;;;;;;4998272;28;20116;-53
2023/03/10 04:58:50;;;;;;;13.15;12.35;;;;;;;;;;4996525;28;20034;-51
2023/03/10 05:01:16;;;;;;;11.82;11.13;;;;;;;;;;4994209;28;20038;-50
2023/03/10 05:03:42;;;;;;;12.32;11.63;;;;;;;;;;4996699;28;20363;-50
2023/03/10 05:06:12;;;;;;;12.02;11.32;;;;;;;;;;4998246;28;20099;-51
2023/03/10 05:08:38;;;;;;;11.43;10.73;;;;;;;;;;4995664;28;20491;-50
2023/03/10 05:11:07;;;;;;;11.93;11.23;;;;;;;;;;4995902;28;20046;-52
2023/03/10 05:13:32;;;;;;;11.80;11.10;;;;;;;;;;5004146;28;20038;-49
2023/03/10 05:15:57;;;;;;;11.82;11.13;;;;;;;;;;5001004;28;20027;-49
2023/03/10 05:18:23;;;;;;;11.90;11.20;;;;;;;;;;4996756;28;20542;-48
2023/03/10 05:20:53;;;;;;;12.05;11.35;;;;;;;;;;4996398;28;20045;-51
2023/03/10 05:23:18;;;;;;;12.05;11.35;;;;;;;;;;4997829;28;20038;-52
2023/03/10 05:25:44;;;;;;;13.50;12.55;;;;;;;;;;4994872;28;20049;-52
2023/03/10 05:28:09;;;;;;;12.07;11.38;;;;;;;;;;4995107;28;20050;-52
2023/03/10 05:30:34;;;;;;;12.68;11.98;;;;;;;;;;4995699;28;20038;-51
2023/03/10 05:33:01;;;;;;;12.95;12.18;;;;;;;;;;4998350;28;20100;-50
2023/03/10 05:35:26;;;;;;;11.60;10.90;;;;;;;;;;4998231;28;20233;-51
2023/03/10 05:37:51;;;;;;;11.52;10.82;;;;;;;;;;4998263;28;20050;-52
2023/03/10 05:40:20;;;;;;;18.25;12.63;;;;;;;;;;5012480;28;20070;-56
2023/03/10 05:42:49;;;;;;;11.25;10.52;;;;;;;;;;4997043;28;20375;-51
2023/03/10 05:45:14;;;;;;;11.48;10.77;;;;;;;;;;4999261;28;20072;-52
2023/03/10 05:47:40;;;;;;;12.70;11.98;;;;;;;;;;4997062;28;20518;-52
2023/03/10 05:50:06;;;;;;;11.38;10.68;;;;;;;;;;4997593;28;20042;-53
2023/03/10 05:52:36;;;;;;;11.52;10.82;;;;;;;;;;4996795;28;20088;-50
2023/03/10 05:55:02;;;;;;;10.93;10.23;;;;;;;;;;4995832;28;20026;-51
2023/03/10 05:57:27;;;;;;;12.23;11.52;;;;;;;;;;4996138;28;20557;-51
2023/03/10 05:59:53;;;;;;;11.30;10.60;;;;;;;;;;4996112;28;20523;-50
2023/03/10 06:02:18;;;;;;;11.57;10.88;;;;;;;;;;4997274;28;20030;-51
2023/03/10 06:04:43;;;;;;;11.93;11.23;;;;;;;;;;4995591;28;20054;-49
2023/03/10 06:07:09;;;;;;;12.10;11.40;;;;;;;;;;4995535;28;20034;-51
2023/03/10 06:09:34;;;;;;;11.85;11.15;;;;;;;;;;4996824;28;20038;-50
2023/03/10 06:12:00;;;;;;;11.80;11.10;;;;;;;;;;4999802;28;20030;-52
2023/03/10 06:14:25;;;;;;;12.15;11.45;;;;;;;;;;4998520;28;20040;-55
2023/03/10 06:16:53;;;;;;;11.82;11.13;;;;;;;;;;4995477;28;20033;-56
2023/03/10 06:19:20;;;;;;;11.52;10.77;;;;;;;;;;4995635;28;20033;-55
2023/03/10 06:21:46;;;;;;;12.00;11.30;;;;;;;;;;4996418;28;20049;-55
2023/03/10 06:24:12;;;;;;;12.38;11.68;;;;;;;;;;4992228;28;20404;-55
2023/03/10 06:26:37;;;;;;;12.40;11.70;;;;;;;;;;4990157;28;20034;-55
2023/03/10 06:29:04;;;;;;;11.48;10.77;;;;;;;;;;4998551;28;20044;-56
2023/03/10 06:31:29;;;;;;;12.77;11.98;;;;;;;;;;4996405;28;20037;-56
2023/03/10 06:33:55;;;;;;;13.10;12.13;;;;;;;;;;4994681;28;20034;-53
2023/03/10 06:36:22;;;;;;;13.00;12.20;;;;;;;;;;4994869;28;20030;-50
2023/03/10 06:38:48;;;;;;;13.57;12.77;;;;;;;;;;4994242;28;20350;-52
2023/03/10 06:41:15;;;;;;;12.82;12.02;;;;;;;;;;4992828;28;20105;-55
2023/03/10 06:43:41;;;;;;;12.70;11.90;;;;;;;;;;4992152;28;20034;-50
2023/03/10 06:46:08;;;;;;;12.13;11.43;;;;;;;;;;4994971;28;20182;-52
2023/03/10 06:48:35;;;;;;;12.45;11.75;;;;;;;;;;4994698;28;20072;-53
2023/03/10 06:51:00;;;;;;;13.13;12.32;;;;;;;;;;4992923;28;20656;-51
2023/03/10 06:53:26;;;;;;;12.27;11.57;;;;;;;;;;4996160;28;20033;-53
2023/03/10 06:56:18;;;;;;;12.70;12.00;;;;;;;;;;4995463;28;20080;-53
2023/03/10 06:58:44;;;;;;;12.30;11.60;;;;;;;;;;4995452;28;20030;-51
2023/03/10 07:01:24;;;;;;;12.25;11.55;;;;;;;;;;4993127;28;20037;-53
2023/03/10 07:03:50;;;;;;;11.63;10.93;;;;;;;;;;4992404;28;20034;-54
2023/03/10 07:06:15;;;;;;;12.45;11.65;;;;;;;;;;4993716;28;20049;-50
2023/03/10 07:08:40;;;;;;;11.70;10.90;;;;;;;;;;4991676;28;20384;-52
2023/03/10 07:11:06;;;;;;;12.45;11.65;;;;;;;;;;4996274;28;20547;-51
2023/03/10 07:13:31;;;;;;;12.45;11.75;;;;;;;;;;4990822;28;20084;-53
2023/03/10 07:15:56;;;;;;;13.25;12.45;;;;;;;;;;4991393;28;20101;-54
2023/03/10 07:18:26;;;;;;;14.10;13.10;;;;;;;;;;4991606;28;20036;-52
2023/03/10 07:20:53;;;;;;;11.95;11.20;;;;;;;;;;4995328;28;20041;-49
2023/03/10 07:23:18;;;;;;;12.57;11.88;;;;;;;;;;4993731;28;20206;-53
2023/03/10 07:25:44;;;;;;;12.40;11.55;;;;;;;;;;4996540;28;20154;-54
2023/03/10 07:28:09;;;;;;;12.30;11.60;;;;;;;;;;4998435;28;20121;-51
2023/03/10 07:30:36;;;;;;;12.00;11.30;;;;;;;;;;4996404;28;20041;-53
2023/03/10 07:33:02;;;;;;;11.63;10.93;;;;;;;;;;4998880;28;20034;-52
2023/03/10 07:35:27;;;;;;;11.63;10.75;;;;;;;;;;4998246;28;20107;-52
2023/03/10 07:37:53;;;;;;;11.27;10.57;;;;;;;;;;4996215;28;20091;-50
2023/03/10 07:40:23;;;;;;;12.15;11.35;;;;;;;;;;4994867;28;20065;-53
2023/03/10 07:42:49;;;;;;;11.55;10.85;;;;;;;;;;5002459;28;20141;-50
2023/03/10 07:45:14;;;;;;;12.38;11.68;;;;;;;;;;5003715;28;20125;-51
2023/03/10 07:47:40;;;;;;;11.10;10.40;;;;;;;;;;4990827;28;20067;-51
2023/03/10 07:50:05;;;;;;;19.70;12.77;;;;;;;;;;4996672;28;20038;-52
2023/03/10 07:52:31;;;;;;;11.18;10.48;;;;;;;;;;4995250;28;20045;-54
2023/03/10 07:54:56;;;;;;;11.85;11.13;;;;;;;;;;4995307;28;20092;-50
2023/03/10 07:57:21;;;;;;;11.95;11.25;;;;;;;;;;4998116;28;20117;-52
2023/03/10 07:59:47;;;;;;;11.63;10.75;;;;;;;;;;4996980;28;20121;-51
2023/03/10 08:02:13;;;;;;;12.13;11.40;;;;;;;;;;4994662;28;20049;-50
2023/03/10 08:04:39;;;;;;;13.00;12.13;;;;;;;;;;4994879;28;20041;-54
2023/03/10 08:07:05;;;;;;;11.80;11.10;;;;;;;;;;4998001;28;20426;-52
2023/03/10 08:09:30;;;;;;;10.80;10.10;;;;;;;;;;5000853;28;20038;-51
2023/03/10 08:11:59;;;;;;;11.68;10.98;;;;;;;;;;5001461;28;20419;-52
2023/03/10 08:14:27;;;;;;;10.95;10.25;;;;;;;;;;4994418;28;20038;-53
2023/03/10 08:16:55;;;;;;;11.98;11.27;;;;;;;;;;4996621;28;20125;-54
2023/03/10 08:19:21;;;;;;;12.65;11.75;;;;;;;;;;4997262;28;20038;-48
2023/03/10 08:21:47;;;;;;;11.63;10.93;;;;;;;;;;4996038;28;20026;-52
2023/03/10 08:24:12;;;;;;;12.23;11.38;;;;;;;;;;4996707;28;20030;-52
2023/03/10 08:26:38;;;;;;;12.43;11.73;;;;;;;;;;4994499;28;20033;-49
2023/03/10 08:29:03;;;;;;;12.30;11.60;;;;;;;;;;4996208;28;20372;-51
2023/03/10 08:31:28;;;;;;;11.38;10.68;;;;;;;;;;4993401;28;20037;-49
2023/03/10 08:33:55;;;;;;;11.85;11.15;;;;;;;;;;4995837;28;20045;-48
2023/03/10 08:36:23;;;;;;;11.30;10.60;;;;;;;;;;4994887;28;20057;-51
2023/03/10 08:38:50;;;;;;;11.25;10.55;;;;;;;;;;4995037;28;20037;-49
2023/03/10 08:41:27;;;;;;;11.25;10.55;;;;;;;;;;4992232;28;20117;-52
2023/03/10 08:43:55;;;;;;;13.07;12.27;;;;;;;;;;4995496;28;20033;-48
2023/03/10 08:46:23;;;;;;;11.85;11.13;;;;;;;;;;4992022;28;20030;-51
2023/03/10 08:48:49;;;;;;;11.27;10.57;;;;;;;;;;4994259;28;20034;-54
2023/03/10 08:51:15;;;;;;;11.48;10.77;;;;;;;;;;4997450;28;20049;-54
2023/03/10 08:53:40;;;;;;;13.18;12.27;;;;;;;;;;4995814;28;20034;-53
2023/03/10 08:56:06;;;;;;;11.55;10.85;;;;;;;;;;4997712;28;20041;-52
2023/03/10 08:58:32;;;;;;;11.70;11.00;;;;;;;;;;4997064;28;20458;-52
2023/03/10 09:00:58;;;;;;;13.65;12.85;;;;;;;;;;4996333;28;20105;-54
2023/03/10 09:03:23;;;;;;;13.30;12.50;;;;;;;;;;4995413;28;20133;-54
2023/03/10 09:05:49;;;;;;;12.48;11.68;;;;;;;;;;4995457;28;20599;-55
2023/03/10 09:08:14;;;;;;;12.48;11.77;;;;;;;;;;4994426;28;20510;-54
2023/03/10 09:10:42;;;;;;;12.50;11.70;;;;;;;;;;5000771;28;20124;-55
2023/03/10 09:13:08;;;;;;;11.40;10.70;;;;;;;;;;4995847;28;20049;-53
2023/03/10 09:15:39;;;;;;;10.93;10.23;;;;;;;;;;4996941;28;20030;-54
2023/03/10 09:18:09;;;;;;;11.07;10.38;;;;;;;;;;4997183;28;20026;-54
2023/03/10 09:20:35;;;;;;;11.73;10.95;;;;;;;;;;4995171;28;20546;-50
2023/03/10 09:23:00;;;;;;;10.68;9.98;;;;;;;;;;4991994;28;20136;-47
2023/03/10 09:25:26;;;;;;;11.23;10.52;;;;;;;;;;4996860;28;20113;-48
2023/03/10 09:27:51;;;;;;;10.95;10.25;;;;;;;;;;4992734;28;20034;-52
2023/03/10 09:30:16;;;;;;;11.32;10.60;;;;;;;;;;4993751;28;20038;-50
2023/03/10 09:32:43;;;;;;;10.80;10.10;;;;;;;;;;4998036;28;20034;-51
2023/03/10 09:35:10;;;;;;;12.95;12.15;;;;;;;;;;4993945;28;20484;-47
2023/03/10 09:37:35;;;;;;;11.10;10.40;;;;;;;;;;4993309;28;20363;-49
2023/03/10 09:40:01;;;;;;;11.77;11.07;;;;;;;;;;5007801;28;20026;-51
2023/03/10 09:42:42;;;;;;;11.48;10.77;;;;;;;;;;4994169;28;20103;-47
2023/03/10 09:45:19;;;;;;;10.00;9.40;;;;;;;;;;4996665;28;20042;-49
2023/03/10 09:48:00;;;;;;;12.23;11.45;;;;;;;;;;4996145;28;20453;-49
2023/03/10 09:50:42;;;;;;;12.00;11.30;;;;;;;;;;4995086;28;20030;-49
2023/03/10 09:53:35;;;;;;;11.82;11.13;;;;;;;;;;4989732;28;20479;-49
2023/03/10 09:56:08;;;;;;;12.18;11.48;;;;;;;;;;4997908;28;20030;-51
2023/03/10 09:58:41;;;;;;;10.30;9.70;;;;;;;;;;4992326;28;20164;-51
2023/03/10 10:01:15;;;;;;;10.65;9.85;;;;;;;;;;4993607;28;20083;-48
2023/03/10 10:03:45;;;;;;;10.80;10.10;;;;;;;;;;4994100;28;20042;-49
2023/03/10 10:06:18;;;;;;;11.93;11.07;;;;;;;;;;4996619;28;20044;-48
2023/03/10 10:08:57;;;;;;;11.45;10.75;;;;;;;;;;4992726;28;20090;-50
2023/03/10 10:11:22;;;;;;;10.98;10.27;;;;;;;;;;4992360;28;20044;-49
2023/03/10 10:13:50;;;;;;;11.23;10.52;;;;;;;;;;4992788;28;20034;-47
2023/03/10 10:16:57;;;;;;;11.20;10.50;;;;;;;;;;4992150;28;20402;-49
2023/03/10 10:19:25;;;;;;;9.73;9.13;;;;;;;;;;4989892;28;20091;-47
2023/03/10 10:22:14;;;;;;;10.50;9.90;;;;;;;;;;4996545;28;20030;-50
2023/03/10 10:24:40;;;;;;;12.13;11.32;;;;;;;;;;4996607;28;20065;-49
2023/03/10 10:27:06;;;;;;;10.70;10.05;;;;;;;;;;4996869;28;20061;-51
2023/03/10 10:29:35;;;;;;;11.52;10.82;;;;;;;;;;4993459;28;20113;-48
2023/03/10 10:32:14;;;;;;;11.68;10.98;;;;;;;;;;4994782;28;20678;-49
2023/03/10 10:34:44;;;;;;;12.63;11.93;;;;;;;;;;4995316;28;20057;-51
2023/03/10 10:37:21;;;;;;;12.43;11.73;;;;;;;;;;4992154;28;20586;-49
2023/03/10 10:39:49;;;;;;;11.48;10.77;;;;;;;;;;4992349;28;20042;-49
2023/03/10 10:42:25;;;;;;;11.20;10.50;;;;;;;;;;4994451;28;20535;-51
2023/03/10 10:45:23;;;;;;;12.73;11.93;;;;;;;;;;4992323;28;20740;-52
2023/03/10 10:47:51;;;;;;;11.68;10.98;;;;;;;;;;4995803;28;20125;-49
2023/03/10 10:50:21;;;;;;;12.27;11.57;;;;;;;;;;4993462;28;20091;-48
2023/03/10 10:52:49;;;;;;;12.02;11.32;;;;;;;;;;4992791;28;20469;-48
2023/03/10 10:55:27;;;;;;;10.88;10.23;;;;;;;;;;4993159;28;20029;-52
2023/03/10 10:57:55;;;;;;;11.05;10.35;;;;;;;;;;4993033;28;20027;-50
2023/03/10 11:00:29;;;;;;;11.10;10.40;;;;;;;;;;4990059;28;20069;-48
2023/03/10 11:02:55;;;;;;;12.50;11.80;;;;;;;;;;4992690;28;20129;-53
2023/03/10 11:05:30;;;;;;;10.85;10.20;;;;;;;;;;4989828;28;20091;-48
2023/03/10 11:08:31;;;;;;;12.35;11.65;;;;;;;;;;4992826;28;20026;-51
2023/03/10 11:11:17;;;;;;;;;;;;;;;;;;4992804;28;20049;-52
2023/03/10 11:13:58;;;;;;;11.18;10.48;;;;;;;;;;4995039;28;19959;-50
2023/03/10 11:16:30;;;;;;;12.18;11.48;;;;;;;;;;4994254;28;20085;-52
2023/03/10 11:19:07;;;;;;;11.48;10.77;;;;;;;;;;4995135;28;20025;-49
2023/03/10 11:21:39;;;;;;;11.70;11.00;;;;;;;;;;4995545;28;20038;-48
2023/03/10 11:24:31;;;;;;;11.95;11.25;;;;;;;;;;4993533;28;20048;-48
2023/03/10 11:27:05;;;;;;;11.65;10.95;;;;;;;;;;4996315;28;20038;-49
2023/03/10 11:29:49;;;;;;;12.02;11.32;;;;;;;;;;4994085;28;20064;-48
2023/03/10 11:32:37;;;;;;;11.27;10.57;;;;;;;;;;4992858;28;20113;-48
2023/03/10 11:35:17;;;;;;;11.70;11.00;;;;;;;;;;4987971;28;20042;-47
2023/03/10 11:37:49;;;;;;;11.48;10.77;;;;;;;;;;4993291;28;20034;-48
2023/03/10 11:40:35;;;;;;;12.38;11.48;;;;;;;;;;4998179;28;20490;-49
2023/03/10 11:43:09;;;;;;;11.40;10.70;;;;;;;;;;4994142;28;20141;-48
2023/03/10 11:45:54;;;;;;;12.65;11.95;;;;;;;;;;4991751;28;20451;-50
2023/03/10 11:48:48;;;;;;;11.75;11.05;;;;;;;;;;4993416;28;20034;-52
2023/03/10 11:51:36;;;;;;;12.60;11.90;;;;;;;;;;4993577;28;20133;-51
2023/03/10 11:54:18;;;;;;;10.88;10.23;;;;;;;;;;4992897;28;20113;-48
2023/03/10 11:56:44;;;;;;;11.60;10.90;;;;;;;;;;4992975;28;20026;-51
2023/03/10 11:59:16;;;;;;;11.50;10.80;;;;;;;;;;4994794;28;20067;-50
2023/03/10 12:01:47;;;;;;;11.70;11.00;;;;;;;;;;4990095;28;20126;-49
2023/03/10 12:04:12;;;;;;;;;;;;;;;;;;4992106;28;20122;-51
2023/03/10 12:06:53;;;;;;;12.48;11.77;;;;;;;;;;4991979;28;20616;-51
2023/03/10 12:09:32;;;;;;;12.75;12.05;;;;;;;;;;4991541;28;20041;-49
2023/03/10 12:11:58;;;;;;;11.15;10.45;;;;;;;;;;4991317;28;20080;-51
2023/03/10 12:14:24;;;;;;;11.98;11.27;;;;;;;;;;4992404;28;20096;-51
2023/03/10 12:16:51;;;;;;;12.40;11.70;;;;;;;;;;4992456;28;20109;-50
2023/03/10 12:19:17;;;;;;;12.32;11.63;;;;;;;;;;4992875;28;20104;-50
2023/03/10 12:21:42;;;;;;;12.02;11.32;;;;;;;;;;4995446;28;20049;-49
2023/03/10 12:24:44;;;;;;;11.75;11.05;;;;;;;;;;4991976;28;20038;-49
2023/03/10 12:27:09;;;;;;;11.55;10.85;;;;;;;;;;4989971;28;20048;-48
2023/03/10 12:29:37;;;;;;;11.77;11.07;;;;;;;;;;4993849;28;20038;-50
2023/03/10 12:32:04;;;;;;;12.68;11.98;;;;;;;;;;4995775;28;20048;-49
2023/03/10 12:34:31;;;;;;;12.13;11.43;;;;;;;;;;4996370;28;20052;-48
2023/03/10 12:37:10;;;;;;;12.43;11.73;;;;;;;;;;4994607;28;20087;-48
2023/03/10 12:39:42;;;;;;;12.13;11.43;;;;;;;;;;4997157;28;20042;-52
2023/03/10 12:42:26;;;;;;;12.60;11.90;;;;;;;;;;4996558;28;20042;-51
2023/03/10 12:45:16;;;;;;;14.63;13.82;;;;;;;;;;4996486;28;20026;-48
2023/03/10 12:47:57;;;;;;;15.55;14.65;;;;;;;;;;4992206;28;20801;-47
2023/03/10 12:50:28;;;;;;;;;;;;;;;;;;4993632;28;20050;-48
2023/03/10 12:53:06;;;;;;;13.63;12.82;;;;;;;;;;4996492;28;20511;-47
2023/03/10 12:55:32;;;;;;;13.65;12.85;;;;;;;;;;4996556;28;20030;-48
2023/03/10 12:58:03;;;;;;;12.77;12.02;;;;;;;;;;4994656;28;20034;-49
2023/03/10 13:00:52;;;;;;;12.70;12.00;;;;;;;;;;5010687;28;20042;-48
2023/03/10 13:03:28;;;;;;;12.63;11.93;;;;;;;;;;4996712;28;20042;-47
2023/03/10 13:06:08;;;;;;;14.18;13.38;;;;;;;;;;4996124;28;20038;-50
2023/03/10 13:08:44;;;;;;;12.77;12.07;;;;;;;;;;4996473;28;20097;-49
2023/03/10 13:11:18;;;;;;;12.07;11.38;;;;;;;;;;4996474;28;20045;-48
2023/03/10 13:13:49;;;;;;;12.27;11.57;;;;;;;;;;5011155;28;20111;-46
2023/03/10 13:16:18;;;;;;;11.80;11.10;;;;;;;;;;5003320;28;20041;-48
2023/03/10 13:18:51;;;;;;;12.88;12.02;;;;;;;;;;4993958;28;20034;-47
2023/03/10 13:21:43;;;;;;;12.75;12.02;;;;;;;;;;5008366;28;20882;-46
2023/03/10 13:24:37;;;;;;;12.85;12.05;;;;;;;;;;4988687;28;20085;-52
2023/03/10 13:27:04;;;;;;;12.60;11.82;;;;;;;;;;4991799;28;20069;-51
2023/03/10 13:29:29;;;;;;;11.45;10.75;;;;;;;;;;4997347;28;20088;-48
2023/03/10 13:31:55;;;;;;;12.10;11.40;;;;;;;;;;5008589;28;20030;-50
2023/03/10 13:34:22;;;;;;;11.20;10.50;;;;;;;;;;4993594;28;20044;-48
2023/03/10 13:36:48;;;;;;;11.68;10.98;;;;;;;;;;4993840;28;20820;-48
2023/03/10 13:39:16;;;;;;;10.93;10.25;;;;;;;;;;4994838;28;20044;-48
2023/03/10 13:41:47;;;;;;;12.55;11.85;;;;;;;;;;4994070;28;20399;-48
2023/03/10 13:44:31;;;;;;;;;;;;;;;;;;4996989;28;20049;-48
2023/03/10 13:47:03;;;;;;;12.18;11.48;;;;;;;;;;4994126;28;20000;-51
2023/03/10 13:49:34;;;;;;;10.98;10.30;;;;;;;;;;4994526;28;20047;-50
2023/03/10 13:52:03;;;;;;;11.43;10.73;;;;;;;;;;4996459;28;20033;-47
2023/03/10 13:54:32;;;;;;;11.23;10.52;;;;;;;;;;4992506;28;20068;-50
2023/03/10 13:57:16;;;;;;;11.73;11.02;;;;;;;;;;4995606;28;20109;-49
2023/03/10 13:59:42;;;;;;;11.38;10.68;;;;;;;;;;4995293;28;20038;-48
2023/03/10 14:02:29;;;;;;;11.82;11.13;;;;;;;;;;4993730;28;20120;-47
2023/03/10 14:04:56;;;;;;;12.65;11.95;;;;;;;;;;4995270;28;20044;-48
2023/03/10 14:07:25;;;;;;;12.38;11.68;;;;;;;;;;4994599;28;20030;-49
2023/03/10 14:10:07;;;;;;;12.77;12.05;;;;;;;;;;4992531;28;20053;-48
2023/03/10 14:12:46;;;;;;;12.25;11.55;;;;;;;;;;4990885;28;20049;-48
2023/03/10 14:15:17;;;;;;;12.07;11.38;;;;;;;;;;4991432;28;20034;-49
2023/03/10 14:18:02;;;;;;;12.75;12.05;;;;;;;;;;4993785;28;20042;-49
2023/03/10 14:20:32;;;;;;;12.30;11.60;;;;;;;;;;4996353;28;20435;-48
2023/03/10 14:23:17;;;;;;;13.30;12.50;;;;;;;;;;4988699;28;20030;-51
2023/03/10 14:25:47;;;;;;;13.50;12.70;;;;;;;;;;4993513;28;20042;-52
2023/03/10 14:28:17;;;;;;;12.57;11.88;;;;;;;;;;4994787;28;20133;-49
2023/03/10 14:30:43;;;;;;;12.18;11.48;;;;;;;;;;4994294;28;20570;-49